Bloomington Heights, Illinois
Current Conditions -  °F | °C
As of 11:56 AM on Tuesday 21 Oct 2014 (Local Time) from KBMI Reporting Station
Clear Clear  
Wind Chill: 56°   Ceiling: Unl
Heat Index: 56°   Visibility: 10mi
Dew Point: 40°   Wind: 9mph
Humidity: 55%   Direction: 30°NNE
Pressure: 30.17"   Gusts: 17mph
Location:  40.4766°N, 88.992°W
Report Text: KBMI 211656Z 03008G15KT 10SM CLR 13/04 A3017 RMK AO2 T01330044 SLP218
Loading
Personal Weather Stations






























Interactive Weather Map
Tropical Storm Tracking
New forecast layout! Learn more

10-Day Weather Forecast

Advertisements
Track Severe Weather on mobile